sensor_id;sensor_type;location;lat;lon;timestamp;pressure;altitude;pressure_sealevel;temperature;humidity
68506;BME280;55509;50.680;17.942;2022-10-16T00:00:21;99728.49;;;13.19;84.83
68506;BME280;55509;50.680;17.942;2022-10-16T00:03:44;99729.59;;;13.18;85.19
68506;BME280;55509;50.680;17.942;2022-10-16T00:06:46;99723.79;;;13.17;85.10
68506;BME280;55509;50.680;17.942;2022-10-16T00:09:47;99729.14;;;13.16;84.99
68506;BME280;55509;50.680;17.942;2022-10-16T00:12:49;99733.61;;;13.14;84.93
68506;BME280;55509;50.680;17.942;2022-10-16T00:15:51;99735.23;;;13.14;84.93
68506;BME280;55509;50.680;17.942;2022-10-16T00:18:56;99737.20;;;13.13;85.32
68506;BME280;55509;50.680;17.942;2022-10-16T00:21:58;99732.84;;;13.11;85.30
68506;BME280;55509;50.680;17.942;2022-10-16T00:24:59;99734.20;;;13.08;85.38
68506;BME280;55509;50.680;17.942;2022-10-16T00:28:01;99731.61;;;13.06;85.41
68506;BME280;55509;50.680;17.942;2022-10-16T00:31:05;99731.54;;;13.03;85.64
68506;BME280;55509;50.680;17.942;2022-10-16T00:34:07;99728.06;;;13.02;85.64
68506;BME280;55509;50.680;17.942;2022-10-16T00:37:09;99726.70;;;13.01;85.91
68506;BME280;55509;50.680;17.942;2022-10-16T00:40:10;99728.64;;;13.00;85.96
68506;BME280;55509;50.680;17.942;2022-10-16T00:43:13;99728.48;;;13.00;86.06
68506;BME280;55509;50.680;17.942;2022-10-16T00:46:27;99727.68;;;12.98;86.05
68506;BME280;55509;50.680;17.942;2022-10-16T00:49:30;99735.01;;;12.96;86.10
68506;BME280;55509;50.680;17.942;2022-10-16T00:52:31;99736.67;;;12.93;86.30
68506;BME280;55509;50.680;17.942;2022-10-16T00:55:33;99732.66;;;12.92;86.45
68506;BME280;55509;50.680;17.942;2022-10-16T00:58:34;99740.74;;;12.93;86.64
68506;BME280;55509;50.680;17.942;2022-10-16T01:01:35;99742.45;;;12.95;86.80
68506;BME280;55509;50.680;17.942;2022-10-16T01:04:43;99745.37;;;12.97;86.58
68506;BME280;55509;50.680;17.942;2022-10-16T01:08:12;99748.84;;;12.98;86.77
68506;BME280;55509;50.680;17.942;2022-10-16T01:11:35;99747.67;;;13.01;86.55
68506;BME280;55509;50.680;17.942;2022-10-16T01:14:47;99742.39;;;13.06;86.58
68506;BME280;55509;50.680;17.942;2022-10-16T01:17:57;99745.27;;;13.10;86.47
68506;BME280;55509;50.680;17.942;2022-10-16T01:21:04;99755.92;;;13.13;86.58
68506;BME280;55509;50.680;17.942;2022-10-16T01:24:32;99759.34;;;13.16;86.42
68506;BME280;55509;50.680;17.942;2022-10-16T01:27:39;99758.14;;;13.19;86.49
68506;BME280;55509;50.680;17.942;2022-10-16T01:30:43;99755.27;;;13.21;86.70
68506;BME280;55509;50.680;17.942;2022-10-16T01:34:05;99755.39;;;13.22;86.59
68506;BME280;55509;50.680;17.942;2022-10-16T01:37:15;99750.18;;;13.24;86.28
68506;BME280;55509;50.680;17.942;2022-10-16T01:40:20;99747.84;;;13.25;86.43
68506;BME280;55509;50.680;17.942;2022-10-16T01:43:31;99747.77;;;13.27;86.36
68506;BME280;55509;50.680;17.942;2022-10-16T01:46:37;99753.35;;;13.29;86.26
68506;BME280;55509;50.680;17.942;2022-10-16T01:49:42;99754.36;;;13.31;86.18
68506;BME280;55509;50.680;17.942;2022-10-16T01:52:48;99753.45;;;13.32;86.24
68506;BME280;55509;50.680;17.942;2022-10-16T01:55:54;99756.25;;;13.32;86.42
68506;BME280;55509;50.680;17.942;2022-10-16T01:59:10;99753.77;;;13.32;86.38
68506;BME280;55509;50.680;17.942;2022-10-16T02:02:14;99758.02;;;13.32;86.46
68506;BME280;55509;50.680;17.942;2022-10-16T02:05:21;99754.88;;;13.31;86.48
68506;BME280;55509;50.680;17.942;2022-10-16T02:08:28;99749.59;;;13.31;86.37
68506;BME280;55509;50.680;17.942;2022-10-16T02:11:31;99754.54;;;13.31;86.33
68506;BME280;55509;50.680;17.942;2022-10-16T02:14:32;99751.19;;;13.30;86.40
68506;BME280;55509;50.680;17.942;2022-10-16T02:17:35;99759.02;;;13.29;86.48
68506;BME280;55509;50.680;17.942;2022-10-16T02:20:57;99761.15;;;13.28;86.47
68506;BME280;55509;50.680;17.942;2022-10-16T02:30:37;99757.23;;;13.25;86.74
68506;BME280;55509;50.680;17.942;2022-10-16T02:33:41;99759.37;;;13.24;86.75
68506;BME280;55509;50.680;17.942;2022-10-16T02:36:44;99759.91;;;13.24;86.64
68506;BME280;55509;50.680;17.942;2022-10-16T02:39:47;99760.59;;;13.24;86.59
68506;BME280;55509;50.680;17.942;2022-10-16T02:42:51;99765.36;;;13.25;86.71
68506;BME280;55509;50.680;17.942;2022-10-16T02:45:53;99762.13;;;13.26;86.66
68506;BME280;55509;50.680;17.942;2022-10-16T02:48:55;99761.19;;;13.27;86.56
68506;BME280;55509;50.680;17.942;2022-10-16T02:51:56;99762.38;;;13.28;86.57
68506;BME280;55509;50.680;17.942;2022-10-16T02:54:58;99770.11;;;13.30;86.52
68506;BME280;55509;50.680;17.942;2022-10-16T02:57:59;99769.55;;;13.31;86.60
68506;BME280;55509;50.680;17.942;2022-10-16T03:01:01;99765.59;;;13.32;86.68
68506;BME280;55509;50.680;17.942;2022-10-16T03:04:03;99765.11;;;13.36;86.72
68506;BME280;55509;50.680;17.942;2022-10-16T03:07:05;99765.70;;;13.39;86.73
68506;BME280;55509;50.680;17.942;2022-10-16T03:10:07;99763.98;;;13.42;86.48
68506;BME280;55509;50.680;17.942;2022-10-16T03:13:09;99771.64;;;13.45;86.46
68506;BME280;55509;50.680;17.942;2022-10-16T03:16:10;99776.86;;;13.48;86.36
68506;BME280;55509;50.680;17.942;2022-10-16T03:19:12;99778.70;;;13.51;86.15
68506;BME280;55509;50.680;17.942;2022-10-16T03:22:14;99776.86;;;13.53;85.91
68506;BME280;55509;50.680;17.942;2022-10-16T03:25:15;99781.00;;;13.55;86.04
68506;BME280;55509;50.680;17.942;2022-10-16T03:28:17;99784.81;;;13.58;86.02
68506;BME280;55509;50.680;17.942;2022-10-16T03:31:19;99783.50;;;13.59;85.99
68506;BME280;55509;50.680;17.942;2022-10-16T03:34:20;99780.50;;;13.60;85.90
68506;BME280;55509;50.680;17.942;2022-10-16T03:37:22;99781.91;;;13.59;85.96
68506;BME280;55509;50.680;17.942;2022-10-16T03:40:23;99784.73;;;13.59;85.93
68506;BME280;55509;50.680;17.942;2022-10-16T03:43:25;99785.21;;;13.61;85.88
68506;BME280;55509;50.680;17.942;2022-10-16T03:46:26;99784.80;;;13.62;85.45
68506;BME280;55509;50.680;17.942;2022-10-16T03:49:28;99782.63;;;13.64;85.53
68506;BME280;55509;50.680;17.942;2022-10-16T03:52:29;99783.30;;;13.65;85.44
68506;BME280;55509;50.680;17.942;2022-10-16T03:55:31;99791.25;;;13.64;85.46
68506;BME280;55509;50.680;17.942;2022-10-16T03:58:33;99801.90;;;13.63;85.34
68506;BME280;55509;50.680;17.942;2022-10-16T04:01:34;99802.17;;;13.61;85.31
68506;BME280;55509;50.680;17.942;2022-10-16T04:04:36;99801.18;;;13.59;85.48
68506;BME280;55509;50.680;17.942;2022-10-16T04:07:37;99797.74;;;13.56;85.34
68506;BME280;55509;50.680;17.942;2022-10-16T04:10:39;99796.75;;;13.54;85.50
68506;BME280;55509;50.680;17.942;2022-10-16T04:13:41;99797.02;;;13.52;85.48
68506;BME280;55509;50.680;17.942;2022-10-16T04:16:43;99805.76;;;13.50;85.35
68506;BME280;55509;50.680;17.942;2022-10-16T04:19:44;99798.60;;;13.47;85.46
68506;BME280;55509;50.680;17.942;2022-10-16T04:22:45;99804.50;;;13.45;85.40
68506;BME280;55509;50.680;17.942;2022-10-16T04:25:47;99813.08;;;13.43;85.69
68506;BME280;55509;50.680;17.942;2022-10-16T04:28:48;99814.23;;;13.40;85.49
68506;BME280;55509;50.680;17.942;2022-10-16T04:31:50;99810.09;;;13.37;85.55
68506;BME280;55509;50.680;17.942;2022-10-16T04:34:52;99813.00;;;13.35;85.81
68506;BME280;55509;50.680;17.942;2022-10-16T04:37:56;99814.52;;;13.32;85.87
68506;BME280;55509;50.680;17.942;2022-10-16T04:40:58;99819.52;;;13.31;85.95
68506;BME280;55509;50.680;17.942;2022-10-16T04:43:59;99821.73;;;13.28;85.76
68506;BME280;55509;50.680;17.942;2022-10-16T04:47:01;99818.15;;;13.24;85.77
68506;BME280;55509;50.680;17.942;2022-10-16T04:50:03;99816.53;;;13.20;86.07
68506;BME280;55509;50.680;17.942;2022-10-16T04:53:05;99811.36;;;13.17;86.16
68506;BME280;55509;50.680;17.942;2022-10-16T04:56:08;99812.12;;;13.16;86.31
68506;BME280;55509;50.680;17.942;2022-10-16T04:59:10;99812.65;;;13.15;86.14
68506;BME280;55509;50.680;17.942;2022-10-16T05:02:11;99810.81;;;13.18;86.38
68506;BME280;55509;50.680;17.942;2022-10-16T05:05:13;99819.89;;;13.20;86.06
68506;BME280;55509;50.680;17.942;2022-10-16T05:08:16;99826.31;;;13.23;85.92
68506;BME280;55509;50.680;17.942;2022-10-16T05:11:17;99837.52;;;13.26;85.67
68506;BME280;55509;50.680;17.942;2022-10-16T05:14:19;99837.77;;;13.29;85.52
68506;BME280;55509;50.680;17.942;2022-10-16T05:17:20;99843.14;;;13.32;85.61
68506;BME280;55509;50.680;17.942;2022-10-16T05:20:22;99842.55;;;13.34;85.53
68506;BME280;55509;50.680;17.942;2022-10-16T05:23:24;99844.52;;;13.37;85.46
68506;BME280;55509;50.680;17.942;2022-10-16T05:26:25;99845.11;;;13.40;85.20
68506;BME280;55509;50.680;17.942;2022-10-16T05:29:27;99847.23;;;13.40;85.18
68506;BME280;55509;50.680;17.942;2022-10-16T05:32:28;99845.48;;;13.40;85.34
68506;BME280;55509;50.680;17.942;2022-10-16T05:35:30;99846.90;;;13.40;85.23
68506;BME280;55509;50.680;17.942;2022-10-16T05:38:31;99854.28;;;13.41;85.26
68506;BME280;55509;50.680;17.942;2022-10-16T05:41:33;99856.38;;;13.42;85.16
68506;BME280;55509;50.680;17.942;2022-10-16T05:44:34;99863.69;;;13.45;85.12
68506;BME280;55509;50.680;17.942;2022-10-16T05:47:36;99866.42;;;13.47;84.96
68506;BME280;55509;50.680;17.942;2022-10-16T05:50:37;99863.91;;;13.49;84.98
68506;BME280;55509;50.680;17.942;2022-10-16T05:53:40;99867.58;;;13.50;84.89
68506;BME280;55509;50.680;17.942;2022-10-16T05:56:43;99869.17;;;13.50;85.17
68506;BME280;55509;50.680;17.942;2022-10-16T05:59:44;99875.58;;;13.49;84.99
68506;BME280;55509;50.680;17.942;2022-10-16T06:02:47;99873.20;;;13.51;84.81
68506;BME280;55509;50.680;17.942;2022-10-16T06:05:48;99877.31;;;13.54;84.84
68506;BME280;55509;50.680;17.942;2022-10-16T06:08:51;99884.04;;;13.59;84.87
68506;BME280;55509;50.680;17.942;2022-10-16T06:11:53;99884.70;;;13.65;84.75
68506;BME280;55509;50.680;17.942;2022-10-16T06:14:54;99884.64;;;13.71;84.42
68506;BME280;55509;50.680;17.942;2022-10-16T06:17:56;99880.55;;;13.76;84.23
68506;BME280;55509;50.680;17.942;2022-10-16T06:20:57;99886.52;;;13.82;84.04
68506;BME280;55509;50.680;17.942;2022-10-16T06:24:00;99888.52;;;13.86;83.72
68506;BME280;55509;50.680;17.942;2022-10-16T06:27:03;99889.78;;;13.89;83.70
68506;BME280;55509;50.680;17.942;2022-10-16T06:30:06;99891.69;;;13.90;83.61
68506;BME280;55509;50.680;17.942;2022-10-16T06:33:08;99892.21;;;13.91;83.61
68506;BME280;55509;50.680;17.942;2022-10-16T06:36:12;99896.36;;;13.93;83.71
68506;BME280;55509;50.680;17.942;2022-10-16T06:39:14;99899.46;;;13.95;83.60
68506;BME280;55509;50.680;17.942;2022-10-16T06:42:15;99898.52;;;13.97;83.55
68506;BME280;55509;50.680;17.942;2022-10-16T06:45:17;99906.58;;;13.99;83.42
68506;BME280;55509;50.680;17.942;2022-10-16T06:48:19;99912.53;;;14.00;83.25
68506;BME280;55509;50.680;17.942;2022-10-16T06:51:22;99909.87;;;14.00;83.44
68506;BME280;55509;50.680;17.942;2022-10-16T06:54:24;99912.31;;;14.01;83.54
68506;BME280;55509;50.680;17.942;2022-10-16T06:57:28;99924.78;;;14.03;83.28
68506;BME280;55509;50.680;17.942;2022-10-16T07:00:30;99928.60;;;14.10;83.17
68506;BME280;55509;50.680;17.942;2022-10-16T07:03:32;99932.13;;;14.19;83.09
68506;BME280;55509;50.680;17.942;2022-10-16T07:06:34;99937.61;;;14.29;82.89
68506;BME280;55509;50.680;17.942;2022-10-16T07:09:35;99933.02;;;14.37;82.49
68506;BME280;55509;50.680;17.942;2022-10-16T07:12:37;99934.20;;;14.43;82.42
68506;BME280;55509;50.680;17.942;2022-10-16T07:15:39;99930.31;;;14.52;82.00
68506;BME280;55509;50.680;17.942;2022-10-16T07:18:41;99933.84;;;14.61;81.66
68506;BME280;55509;50.680;17.942;2022-10-16T07:21:44;99933.13;;;14.70;81.38
68506;BME280;55509;50.680;17.942;2022-10-16T07:24:46;99942.43;;;14.81;81.29
68506;BME280;55509;50.680;17.942;2022-10-16T07:27:47;99942.65;;;14.93;80.48
68506;BME280;55509;50.680;17.942;2022-10-16T07:30:49;99945.95;;;15.02;79.92
68506;BME280;55509;50.680;17.942;2022-10-16T07:33:51;99953.27;;;15.14;79.78
68506;BME280;55509;50.680;17.942;2022-10-16T07:36:53;99947.98;;;15.26;79.15
68506;BME280;55509;50.680;17.942;2022-10-16T07:39:54;99950.23;;;15.31;78.62
68506;BME280;55509;50.680;17.942;2022-10-16T07:42:56;99950.29;;;15.38;78.55
68506;BME280;55509;50.680;17.942;2022-10-16T07:45:58;99945.58;;;15.44;78.24
68506;BME280;55509;50.680;17.942;2022-10-16T07:48:59;99949.02;;;15.55;77.92
68506;BME280;55509;50.680;17.942;2022-10-16T07:52:01;99949.54;;;15.71;77.21
68506;BME280;55509;50.680;17.942;2022-10-16T07:55:03;99954.92;;;15.89;76.87
68506;BME280;55509;50.680;17.942;2022-10-16T07:58:06;99953.71;;;16.05;75.92
68506;BME280;55509;50.680;17.942;2022-10-16T08:01:10;99953.59;;;16.15;75.36
68506;BME280;55509;50.680;17.942;2022-10-16T08:04:11;99960.92;;;16.25;74.97
68506;BME280;55509;50.680;17.942;2022-10-16T08:07:13;99962.47;;;16.34;74.54
68506;BME280;55509;50.680;17.942;2022-10-16T08:10:19;99965.78;;;16.42;74.06
68506;BME280;55509;50.680;17.942;2022-10-16T08:13:21;99968.80;;;16.57;73.51
68506;BME280;55509;50.680;17.942;2022-10-16T08:16:23;99973.63;;;16.75;72.83
68506;BME280;55509;50.680;17.942;2022-10-16T08:19:25;99972.94;;;16.96;71.92
68506;BME280;55509;50.680;17.942;2022-10-16T08:22:26;99974.45;;;17.09;71.19
68506;BME280;55509;50.680;17.942;2022-10-16T08:25:29;99971.64;;;17.33;70.72
68506;BME280;55509;50.680;17.942;2022-10-16T08:28:31;99970.53;;;17.68;69.47
68506;BME280;55509;50.680;17.942;2022-10-16T08:31:32;99977.85;;;17.91;67.91
68506;BME280;55509;50.680;17.942;2022-10-16T08:34:34;99969.59;;;18.16;67.88
68506;BME280;55509;50.680;17.942;2022-10-16T08:37:36;99974.31;;;18.66;66.33
68506;BME280;55509;50.680;17.942;2022-10-16T08:40:38;99970.93;;;19.55;63.60
68506;BME280;55509;50.680;17.942;2022-10-16T08:47:49;99976.85;;;19.81;61.79
68506;BME280;55509;50.680;17.942;2022-10-16T08:50:32;99982.23;;;19.68;61.47
68506;BME280;55509;50.680;17.942;2022-10-16T08:53:46;99986.04;;;19.55;61.42
68506;BME280;55509;50.680;17.942;2022-10-16T08:56:50;99989.98;;;19.43;62.18
68506;BME280;55509;50.680;17.942;2022-10-16T08:59:52;99991.66;;;19.36;62.66
68506;BME280;55509;50.680;17.942;2022-10-16T09:03:22;99996.19;;;19.35;62.57
68506;BME280;55509;50.680;17.942;2022-10-16T09:12:57;99988.64;;;19.42;62.16
68506;BME280;55509;50.680;17.942;2022-10-16T09:19:47;99987.54;;;19.24;62.56
68506;BME280;55509;50.680;17.942;2022-10-16T09:23:14;99989.52;;;19.24;62.31
68506;BME280;55509;50.680;17.942;2022-10-16T09:26:17;99991.41;;;19.28;62.44
68506;BME280;55509;50.680;17.942;2022-10-16T09:29:21;99996.31;;;19.23;62.47
68506;BME280;55509;50.680;17.942;2022-10-16T09:32:24;100000.20;;;19.09;62.73
68506;BME280;55509;50.680;17.942;2022-10-16T09:35:40;100003.77;;;18.90;63.18
68506;BME280;55509;50.680;17.942;2022-10-16T09:38:43;100010.05;;;18.70;63.82
68506;BME280;55509;50.680;17.942;2022-10-16T09:41:45;100008.21;;;18.58;64.41
68506;BME280;55509;50.680;17.942;2022-10-16T09:44:49;100008.81;;;18.47;65.10
68506;BME280;55509;50.680;17.942;2022-10-16T09:47:51;100007.80;;;18.40;65.42
68506;BME280;55509;50.680;17.942;2022-10-16T09:51:01;100004.98;;;18.36;65.75
68506;BME280;55509;50.680;17.942;2022-10-16T09:57:12;100007.20;;;18.35;66.06
68506;BME280;55509;50.680;17.942;2022-10-16T10:00:18;100011.60;;;18.39;66.39
68506;BME280;55509;50.680;17.942;2022-10-16T10:06:57;100020.55;;;18.76;66.21
68506;BME280;55509;50.680;17.942;2022-10-16T10:10:04;100021.67;;;19.31;64.97
68506;BME280;55509;50.680;17.942;2022-10-16T10:13:20;100015.68;;;20.28;62.66
68506;BME280;55509;50.680;17.942;2022-10-16T10:16:25;100016.19;;;21.25;59.77
68506;BME280;55509;50.680;17.942;2022-10-16T10:19:27;100012.61;;;21.91;58.24
68506;BME280;55509;50.680;17.942;2022-10-16T10:22:42;100016.03;;;22.42;55.82
68506;BME280;55509;50.680;17.942;2022-10-16T10:26:08;100014.45;;;23.29;53.62
68506;BME280;55509;50.680;17.942;2022-10-16T10:39:08;100009.35;;;23.42;51.15
68506;BME280;55509;50.680;17.942;2022-10-16T10:45:38;100007.12;;;22.41;52.73
68506;BME280;55509;50.680;17.942;2022-10-16T10:49:02;100015.64;;;22.02;53.62
68506;BME280;55509;50.680;17.942;2022-10-16T11:02:41;100017.88;;;21.64;54.92
68506;BME280;55509;50.680;17.942;2022-10-16T11:05:56;100019.22;;;21.65;54.84
68506;BME280;55509;50.680;17.942;2022-10-16T11:09:06;100024.13;;;21.53;54.49
68506;BME280;55509;50.680;17.942;2022-10-16T11:12:27;100028.37;;;21.44;55.15
68506;BME280;55509;50.680;17.942;2022-10-16T11:15:32;100029.98;;;21.33;55.30
68506;BME280;55509;50.680;17.942;2022-10-16T11:18:55;100029.32;;;21.11;55.54
68506;BME280;55509;50.680;17.942;2022-10-16T11:25:30;100035.63;;;20.71;57.20
68506;BME280;55509;50.680;17.942;2022-10-16T11:28:37;100034.53;;;20.55;57.76
68506;BME280;55509;50.680;17.942;2022-10-16T11:31:47;100039.25;;;20.39;57.98
68506;BME280;55509;50.680;17.942;2022-10-16T11:34:59;100036.74;;;20.23;58.28
68506;BME280;55509;50.680;17.942;2022-10-16T11:38:09;100031.75;;;20.08;58.76
68506;BME280;55509;50.680;17.942;2022-10-16T11:48:15;100031.73;;;20.45;58.55
68506;BME280;55509;50.680;17.942;2022-10-16T11:51:35;100023.20;;;20.53;58.54
68506;BME280;55509;50.680;17.942;2022-10-16T11:57:57;100017.21;;;20.74;58.55
68506;BME280;55509;50.680;17.942;2022-10-16T12:07:26;100010.11;;;22.52;54.73
68506;BME280;55509;50.680;17.942;2022-10-16T12:10:30;100005.20;;;24.03;51.69
68506;BME280;55509;50.680;17.942;2022-10-16T12:13:40;100003.44;;;25.59;48.24
68506;BME280;55509;50.680;17.942;2022-10-16T12:19:59;100009.84;;;28.38;40.13
68506;BME280;55509;50.680;17.942;2022-10-16T12:23:05;100015.36;;;29.63;39.42
68506;BME280;55509;50.680;17.942;2022-10-16T12:26:07;100017.97;;;30.22;36.63
68506;BME280;55509;50.680;17.942;2022-10-16T12:29:23;100023.23;;;29.07;37.40
68506;BME280;55509;50.680;17.942;2022-10-16T12:32:34;100024.84;;;28.95;37.54
68506;BME280;55509;50.680;17.942;2022-10-16T12:35:43;100026.87;;;29.68;36.38
68506;BME280;55509;50.680;17.942;2022-10-16T12:38:49;100020.80;;;30.76;35.06
68506;BME280;55509;50.680;17.942;2022-10-16T12:42:04;100019.22;;;31.03;33.48
68506;BME280;55509;50.680;17.942;2022-10-16T12:45:41;100012.46;;;28.90;35.33
68506;BME280;55509;50.680;17.942;2022-10-16T12:48:44;100009.62;;;26.18;40.03
68506;BME280;55509;50.680;17.942;2022-10-16T12:51:47;100021.33;;;24.75;43.43
68506;BME280;55509;50.680;17.942;2022-10-16T12:54:56;100029.23;;;23.71;45.91
68506;BME280;55509;50.680;17.942;2022-10-16T13:06:12;100042.96;;;22.36;50.54
68506;BME280;55509;50.680;17.942;2022-10-16T13:19:51;100054.65;;;25.03;46.00
68506;BME280;55509;50.680;17.942;2022-10-16T13:29:30;100066.40;;;26.12;43.57
68506;BME280;55509;50.680;17.942;2022-10-16T13:32:32;100068.65;;;26.20;41.79
68506;BME280;55509;50.680;17.942;2022-10-16T13:35:34;100071.20;;;25.49;43.54
68506;BME280;55509;50.680;17.942;2022-10-16T13:38:36;100079.82;;;24.36;45.49
68506;BME280;55509;50.680;17.942;2022-10-16T13:41:38;100080.06;;;23.37;47.63
68506;BME280;55509;50.680;17.942;2022-10-16T13:44:46;100078.47;;;22.76;49.11
68506;BME280;55509;50.680;17.942;2022-10-16T13:47:49;100080.41;;;22.48;49.97
68506;BME280;55509;50.680;17.942;2022-10-16T13:51:02;100075.05;;;22.83;49.86
68506;BME280;55509;50.680;17.942;2022-10-16T13:54:04;100078.91;;;23.38;48.98
68506;BME280;55509;50.680;17.942;2022-10-16T13:57:06;100078.77;;;23.28;48.80
68506;BME280;55509;50.680;17.942;2022-10-16T14:00:27;100078.45;;;22.56;50.19
68506;BME280;55509;50.680;17.942;2022-10-16T14:03:34;100086.45;;;22.11;51.28
68506;BME280;55509;50.680;17.942;2022-10-16T14:06:41;100090.15;;;21.61;52.47
68506;BME280;55509;50.680;17.942;2022-10-16T14:09:48;100090.68;;;21.10;53.85
68506;BME280;55509;50.680;17.942;2022-10-16T14:12:59;100099.61;;;20.71;55.22
68506;BME280;55509;50.680;17.942;2022-10-16T14:16:07;100092.31;;;20.33;56.47
68506;BME280;55509;50.680;17.942;2022-10-16T14:19:20;100106.08;;;20.01;57.65
68506;BME280;55509;50.680;17.942;2022-10-16T14:22:37;100105.22;;;19.73;58.85
68506;BME280;55509;50.680;17.942;2022-10-16T14:25:39;100100.61;;;19.51;59.80
68506;BME280;55509;50.680;17.942;2022-10-16T14:28:41;100103.30;;;19.38;60.54
68506;BME280;55509;50.680;17.942;2022-10-16T14:31:59;100103.52;;;19.32;61.04
68506;BME280;55509;50.680;17.942;2022-10-16T14:35:02;100109.33;;;19.33;61.27
68506;BME280;55509;50.680;17.942;2022-10-16T14:38:05;100113.52;;;19.40;61.35
68506;BME280;55509;50.680;17.942;2022-10-16T14:41:07;100114.48;;;19.46;61.43
68506;BME280;55509;50.680;17.942;2022-10-16T14:44:10;100110.66;;;19.44;61.58
68506;BME280;55509;50.680;17.942;2022-10-16T14:47:15;100107.98;;;19.35;61.76
68506;BME280;55509;50.680;17.942;2022-10-16T14:50:18;100107.13;;;19.21;62.19
68506;BME280;55509;50.680;17.942;2022-10-16T14:53:20;100104.42;;;19.10;62.71
68506;BME280;55509;50.680;17.942;2022-10-16T14:56:24;100104.77;;;18.99;63.20
68506;BME280;55509;50.680;17.942;2022-10-16T14:59:40;100105.33;;;18.90;63.57
68506;BME280;55509;50.680;17.942;2022-10-16T15:02:51;100110.44;;;18.78;63.96
68506;BME280;55509;50.680;17.942;2022-10-16T15:05:52;100114.40;;;18.67;64.44
68506;BME280;55509;50.680;17.942;2022-10-16T15:08:54;100120.44;;;18.57;64.80
68506;BME280;55509;50.680;17.942;2022-10-16T15:11:55;100126.34;;;18.47;65.25
68506;BME280;55509;50.680;17.942;2022-10-16T15:14:57;100128.57;;;18.39;65.87
68506;BME280;55509;50.680;17.942;2022-10-16T15:17:59;100135.23;;;18.27;66.42
68506;BME280;55509;50.680;17.942;2022-10-16T15:21:06;100131.84;;;18.14;66.94
68506;BME280;55509;50.680;17.942;2022-10-16T15:24:12;100132.98;;;18.01;67.40
68506;BME280;55509;50.680;17.942;2022-10-16T15:27:13;100136.29;;;17.92;67.78
68506;BME280;55509;50.680;17.942;2022-10-16T15:30:15;100138.70;;;17.83;68.17
68506;BME280;55509;50.680;17.942;2022-10-16T15:33:20;100137.52;;;17.75;68.41
68506;BME280;55509;50.680;17.942;2022-10-16T15:36:50;100136.92;;;17.66;68.96
68506;BME280;55509;50.680;17.942;2022-10-16T15:39:51;100136.69;;;17.56;69.35
68506;BME280;55509;50.680;17.942;2022-10-16T15:42:53;100132.81;;;17.48;69.86
68506;BME280;55509;50.680;17.942;2022-10-16T15:46:02;100138.36;;;17.40;70.35
68506;BME280;55509;50.680;17.942;2022-10-16T15:49:08;100140.77;;;17.31;70.77
68506;BME280;55509;50.680;17.942;2022-10-16T15:52:11;100146.89;;;17.22;70.94
68506;BME280;55509;50.680;17.942;2022-10-16T15:55:13;100150.75;;;17.16;71.14
68506;BME280;55509;50.680;17.942;2022-10-16T15:58:15;100149.04;;;17.11;71.55
68506;BME280;55509;50.680;17.942;2022-10-16T16:01:17;100152.16;;;17.04;71.79
68506;BME280;55509;50.680;17.942;2022-10-16T16:04:18;100164.75;;;17.01;71.75
68506;BME280;55509;50.680;17.942;2022-10-16T16:07:20;100160.50;;;16.96;71.86
68506;BME280;55509;50.680;17.942;2022-10-16T16:10:22;100163.83;;;16.93;72.18
68506;BME280;55509;50.680;17.942;2022-10-16T16:13:26;100171.34;;;16.92;72.34
68506;BME280;55509;50.680;17.942;2022-10-16T16:16:28;100175.11;;;16.91;72.28
68506;BME280;55509;50.680;17.942;2022-10-16T16:19:29;100183.53;;;16.90;72.49
68506;BME280;55509;50.680;17.942;2022-10-16T16:22:32;100186.66;;;16.88;72.59
68506;BME280;55509;50.680;17.942;2022-10-16T16:25:33;100192.78;;;16.85;72.88
68506;BME280;55509;50.680;17.942;2022-10-16T16:28:35;100200.71;;;16.83;72.60
68506;BME280;55509;50.680;17.942;2022-10-16T16:31:37;100203.10;;;16.82;72.69
68506;BME280;55509;50.680;17.942;2022-10-16T16:34:39;100216.16;;;16.79;72.80
68506;BME280;55509;50.680;17.942;2022-10-16T16:37:40;100224.08;;;16.77;72.82
68506;BME280;55509;50.680;17.942;2022-10-16T16:40:42;100222.77;;;16.78;72.83
68506;BME280;55509;50.680;17.942;2022-10-16T16:43:44;100227.83;;;16.80;72.61
68506;BME280;55509;50.680;17.942;2022-10-16T16:46:46;100229.55;;;16.82;72.49
68506;BME280;55509;50.680;17.942;2022-10-16T16:49:47;100240.94;;;16.81;72.47
68506;BME280;55509;50.680;17.942;2022-10-16T16:52:49;100243.17;;;16.79;72.59
68506;BME280;55509;50.680;17.942;2022-10-16T16:55:51;100244.39;;;16.76;72.64
68506;BME280;55509;50.680;17.942;2022-10-16T16:58:54;100249.10;;;16.74;72.52
68506;BME280;55509;50.680;17.942;2022-10-16T17:01:56;100246.99;;;16.73;72.49
68506;BME280;55509;50.680;17.942;2022-10-16T17:04:59;100251.61;;;16.73;72.51
68506;BME280;55509;50.680;17.942;2022-10-16T17:08:01;100257.70;;;16.72;72.48
68506;BME280;55509;50.680;17.942;2022-10-16T17:11:04;100257.90;;;16.67;72.74
68506;BME280;55509;50.680;17.942;2022-10-16T17:14:05;100264.05;;;16.60;73.02
68506;BME280;55509;50.680;17.942;2022-10-16T17:17:09;100265.62;;;16.53;73.05
68506;BME280;55509;50.680;17.942;2022-10-16T17:20:11;100256.45;;;16.48;73.25
68506;BME280;55509;50.680;17.942;2022-10-16T17:23:14;100258.50;;;16.41;73.36
68506;BME280;55509;50.680;17.942;2022-10-16T17:26:16;100264.61;;;16.35;73.55
68506;BME280;55509;50.680;17.942;2022-10-16T17:29:18;100267.52;;;16.29;73.79
68506;BME280;55509;50.680;17.942;2022-10-16T17:32:20;100272.32;;;16.25;73.73
68506;BME280;55509;50.680;17.942;2022-10-16T17:35:23;100275.83;;;16.22;73.70
68506;BME280;55509;50.680;17.942;2022-10-16T17:38:25;100276.50;;;16.18;74.07